sensor_id;sensor_type;location;lat;lon;timestamp;noise_LAeq;noise_LA_min;noise_LA_max;noise_LA01;noise_LA95
72415;Laerm;60995;52.154;4.498;2022-10-17T00:00:48;45.76;40.18;62.13;;
72415;Laerm;60995;52.154;4.498;2022-10-17T00:03:05;46.33;41.09;55.74;;
72415;Laerm;60995;52.154;4.498;2022-10-17T00:05:21;46.09;39.99;54.68;;
72415;Laerm;60995;52.154;4.498;2022-10-17T00:07:38;47.63;40.21;56.20;;
72415;Laerm;60995;52.154;4.498;2022-10-17T00:09:54;47.79;40.81;57.75;;
72415;Laerm;60995;52.154;4.498;2022-10-17T00:12:10;45.96;39.86;56.47;;
72415;Laerm;60995;52.154;4.498;2022-10-17T00:14:26;45.77;39.48;56.36;;
72415;Laerm;60995;52.154;4.498;2022-10-17T00:16:42;45.35;40.21;54.88;;
72415;Laerm;60995;52.154;4.498;2022-10-17T00:18:58;45.88;40.87;54.35;;
72415;Laerm;60995;52.154;4.498;2022-10-17T00:21:16;47.22;40.29;56.68;;
72415;Laerm;60995;52.154;4.498;2022-10-17T00:23:32;44.11;39.57;68.04;;
72415;Laerm;60995;52.154;4.498;2022-10-17T00:26:00;45.87;39.63;59.45;;
72415;Laerm;60995;52.154;4.498;2022-10-17T00:28:16;47.23;40.75;58.65;;
72415;Laerm;60995;52.154;4.498;2022-10-17T00:30:32;45.11;40.36;52.91;;
72415;Laerm;60995;52.154;4.498;2022-10-17T00:32:48;45.05;40.14;52.32;;
72415;Laerm;60995;52.154;4.498;2022-10-17T00:35:05;46.20;39.82;57.84;;
72415;Laerm;60995;52.154;4.498;2022-10-17T00:37:21;47.91;39.86;56.87;;
72415;Laerm;60995;52.154;4.498;2022-10-17T00:39:37;45.72;40.38;53.13;;
72415;Laerm;60995;52.154;4.498;2022-10-17T00:41:53;48.06;40.72;58.38;;
72415;Laerm;60995;52.154;4.498;2022-10-17T00:46:44;46.22;40.47;55.14;;
72415;Laerm;60995;52.154;4.498;2022-10-17T00:49:04;47.83;38.66;62.44;;
72415;Laerm;60995;52.154;4.498;2022-10-17T00:51:36;46.26;40.37;57.42;;
72415;Laerm;60995;52.154;4.498;2022-10-17T00:53:53;46.45;39.95;66.50;;
72415;Laerm;60995;52.154;4.498;2022-10-17T00:56:10;47.72;40.93;54.54;;
72415;Laerm;60995;52.154;4.498;2022-10-17T00:58:26;46.71;40.77;58.51;;
72415;Laerm;60995;52.154;4.498;2022-10-17T01:00:42;47.53;41.61;56.58;;
72415;Laerm;60995;52.154;4.498;2022-10-17T01:02:59;47.62;42.07;55.45;;
72415;Laerm;60995;52.154;4.498;2022-10-17T01:05:16;46.94;41.36;65.33;;
72415;Laerm;60995;52.154;4.498;2022-10-17T01:07:34;48.26;41.58;55.41;;
72415;Laerm;60995;52.154;4.498;2022-10-17T01:09:51;48.08;41.93;57.39;;
72415;Laerm;60995;52.154;4.498;2022-10-17T01:12:19;46.33;39.60;55.57;;
72415;Laerm;60995;52.154;4.498;2022-10-17T01:17:21;47.83;40.85;55.77;;
72415;Laerm;60995;52.154;4.498;2022-10-17T01:22:37;46.99;41.21;55.44;;
72415;Laerm;60995;52.154;4.498;2022-10-17T01:32:19;47.20;41.41;57.04;;
72415;Laerm;60995;52.154;4.498;2022-10-17T01:35:00;46.99;40.31;61.85;;
72415;Laerm;60995;52.154;4.498;2022-10-17T01:37:29;46.49;40.67;54.31;;
72415;Laerm;60995;52.154;4.498;2022-10-17T01:39:52;47.53;41.56;67.06;;
72415;Laerm;60995;52.154;4.498;2022-10-17T01:44:41;47.20;40.94;58.44;;
72415;Laerm;60995;52.154;4.498;2022-10-17T01:47:04;47.33;42.01;54.66;;
72415;Laerm;60995;52.154;4.498;2022-10-17T01:49:24;46.56;41.78;52.88;;
72415;Laerm;60995;52.154;4.498;2022-10-17T01:51:46;45.56;40.88;54.09;;
72415;Laerm;60995;52.154;4.498;2022-10-17T01:54:10;46.61;41.00;53.82;;
72415;Laerm;60995;52.154;4.498;2022-10-17T01:56:29;47.37;41.05;62.95;;
72415;Laerm;60995;52.154;4.498;2022-10-17T01:58:50;47.45;42.04;53.77;;
72415;Laerm;60995;52.154;4.498;2022-10-17T02:01:10;47.72;41.58;58.70;;
72415;Laerm;60995;52.154;4.498;2022-10-17T02:03:27;47.58;42.10;67.58;;
72415;Laerm;60995;52.154;4.498;2022-10-17T02:05:44;46.89;42.01;54.46;;
72415;Laerm;60995;52.154;4.498;2022-10-17T02:08:00;47.69;42.44;57.48;;
72415;Laerm;60995;52.154;4.498;2022-10-17T02:13:18;49.47;43.39;60.35;;
72415;Laerm;60995;52.154;4.498;2022-10-17T02:20:47;47.20;42.74;56.26;;
72415;Laerm;60995;52.154;4.498;2022-10-17T02:30:40;48.69;43.38;57.24;;
72415;Laerm;60995;52.154;4.498;2022-10-17T02:33:05;48.33;43.02;59.60;;
72415;Laerm;60995;52.154;4.498;2022-10-17T02:35:29;48.60;43.02;59.35;;
72415;Laerm;60995;52.154;4.498;2022-10-17T02:37:46;48.24;42.53;60.22;;
72415;Laerm;60995;52.154;4.498;2022-10-17T02:40:04;48.39;43.77;57.69;;
72415;Laerm;60995;52.154;4.498;2022-10-17T02:42:23;48.66;43.45;54.96;;
72415;Laerm;60995;52.154;4.498;2022-10-17T02:44:42;48.41;41.91;64.39;;
72415;Laerm;60995;52.154;4.498;2022-10-17T02:47:17;48.21;42.43;57.48;;
72415;Laerm;60995;52.154;4.498;2022-10-17T02:49:39;49.02;43.32;58.46;;
72415;Laerm;60995;52.154;4.498;2022-10-17T02:52:09;48.84;42.90;61.95;;
72415;Laerm;60995;52.154;4.498;2022-10-17T02:54:36;49.98;43.75;59.53;;
72415;Laerm;60995;52.154;4.498;2022-10-17T02:57:05;48.57;42.88;55.83;;
72415;Laerm;60995;52.154;4.498;2022-10-17T02:59:24;49.51;44.34;61.48;;
72415;Laerm;60995;52.154;4.498;2022-10-17T03:01:42;49.47;44.08;57.80;;
72415;Laerm;60995;52.154;4.498;2022-10-17T03:04:09;51.01;44.85;57.40;;
72415;Laerm;60995;52.154;4.498;2022-10-17T03:06:27;50.50;44.67;56.66;;
72415;Laerm;60995;52.154;4.498;2022-10-17T03:08:43;51.06;44.65;65.37;;
72415;Laerm;60995;52.154;4.498;2022-10-17T03:10:59;51.63;44.84;59.84;;
72415;Laerm;60995;52.154;4.498;2022-10-17T03:13:15;51.10;45.08;60.93;;
72415;Laerm;60995;52.154;4.498;2022-10-17T03:15:31;50.51;44.72;62.97;;
72415;Laerm;60995;52.154;4.498;2022-10-17T03:17:47;51.99;46.45;67.42;;
72415;Laerm;60995;52.154;4.498;2022-10-17T03:20:05;50.83;45.71;57.48;;
72415;Laerm;60995;52.154;4.498;2022-10-17T03:22:21;51.22;45.65;57.98;;
72415;Laerm;60995;52.154;4.498;2022-10-17T03:24:38;51.79;46.64;59.14;;
72415;Laerm;60995;52.154;4.498;2022-10-17T03:26:54;52.22;46.21;58.94;;
72415;Laerm;60995;52.154;4.498;2022-10-17T03:29:10;52.09;45.26;58.93;;
72415;Laerm;60995;52.154;4.498;2022-10-17T03:31:26;52.41;46.53;59.54;;
72415;Laerm;60995;52.154;4.498;2022-10-17T03:33:42;52.53;47.11;59.69;;
72415;Laerm;60995;52.154;4.498;2022-10-17T03:35:58;52.21;46.93;67.71;;
72415;Laerm;60995;52.154;4.498;2022-10-17T03:38:14;53.76;47.23;62.33;;
72415;Laerm;60995;52.154;4.498;2022-10-17T03:40:30;52.56;47.28;57.75;;
72415;Laerm;60995;52.154;4.498;2022-10-17T03:42:46;52.68;47.65;58.37;;
72415;Laerm;60995;52.154;4.498;2022-10-17T03:45:02;52.03;47.27;59.44;;
72415;Laerm;60995;52.154;4.498;2022-10-17T03:47:19;52.16;46.70;69.91;;
72415;Laerm;60995;52.154;4.498;2022-10-17T03:49:35;52.97;47.77;59.45;;
72415;Laerm;60995;52.154;4.498;2022-10-17T03:51:51;52.97;47.75;66.15;;
72415;Laerm;60995;52.154;4.498;2022-10-17T03:54:07;52.86;47.81;59.46;;
72415;Laerm;60995;52.154;4.498;2022-10-17T03:56:24;52.54;46.77;63.17;;
72415;Laerm;60995;52.154;4.498;2022-10-17T03:58:41;52.75;47.62;62.19;;
72415;Laerm;60995;52.154;4.498;2022-10-17T04:01:03;53.91;48.00;61.07;;
72415;Laerm;60995;52.154;4.498;2022-10-17T04:03:19;54.61;48.93;61.87;;
72415;Laerm;60995;52.154;4.498;2022-10-17T04:05:35;53.82;49.07;59.51;;
72415;Laerm;60995;52.154;4.498;2022-10-17T04:07:51;53.96;47.45;60.50;;
72415;Laerm;60995;52.154;4.498;2022-10-17T04:10:07;52.87;46.64;58.89;;
72415;Laerm;60995;52.154;4.498;2022-10-17T04:12:24;53.35;48.14;59.11;;
72415;Laerm;60995;52.154;4.498;2022-10-17T04:14:40;53.35;48.05;59.67;;
72415;Laerm;60995;52.154;4.498;2022-10-17T04:16:56;53.28;48.48;62.49;;
72415;Laerm;60995;52.154;4.498;2022-10-17T04:19:12;53.59;48.18;61.24;;
72415;Laerm;60995;52.154;4.498;2022-10-17T04:21:28;53.90;49.21;59.03;;
72415;Laerm;60995;52.154;4.498;2022-10-17T04:23:45;53.82;49.23;58.72;;
72415;Laerm;60995;52.154;4.498;2022-10-17T04:26:03;54.00;48.84;59.80;;
72415;Laerm;60995;52.154;4.498;2022-10-17T04:28:19;54.60;47.88;63.34;;
72415;Laerm;60995;52.154;4.498;2022-10-17T04:30:35;54.31;48.43;61.14;;
72415;Laerm;60995;52.154;4.498;2022-10-17T04:32:51;53.99;49.41;60.47;;
72415;Laerm;60995;52.154;4.498;2022-10-17T04:35:07;54.00;48.88;60.01;;
72415;Laerm;60995;52.154;4.498;2022-10-17T04:37:23;53.61;48.55;64.26;;
72415;Laerm;60995;52.154;4.498;2022-10-17T04:39:39;53.27;48.51;58.89;;
72415;Laerm;60995;52.154;4.498;2022-10-17T04:41:55;53.87;49.10;59.62;;
72415;Laerm;60995;52.154;4.498;2022-10-17T04:44:11;54.12;48.29;63.93;;
72415;Laerm;60995;52.154;4.498;2022-10-17T04:46:28;52.87;47.44;58.23;;
72415;Laerm;60995;52.154;4.498;2022-10-17T04:48:44;53.18;47.55;59.65;;
72415;Laerm;60995;52.154;4.498;2022-10-17T04:51:04;53.33;47.57;60.06;;
72415;Laerm;60995;52.154;4.498;2022-10-17T04:53:21;52.68;46.76;64.92;;
72415;Laerm;60995;52.154;4.498;2022-10-17T04:55:37;52.79;47.10;63.06;;
72415;Laerm;60995;52.154;4.498;2022-10-17T04:57:54;51.63;46.30;59.48;;
72415;Laerm;60995;52.154;4.498;2022-10-17T05:00:10;52.43;47.33;59.10;;
72415;Laerm;60995;52.154;4.498;2022-10-17T05:02:26;52.08;46.32;57.80;;
72415;Laerm;60995;52.154;4.498;2022-10-17T05:04:42;52.80;47.65;62.77;;
72415;Laerm;60995;52.154;4.498;2022-10-17T05:06:58;52.12;47.36;57.08;;
72415;Laerm;60995;52.154;4.498;2022-10-17T05:09:14;52.17;47.29;57.84;;
72415;Laerm;60995;52.154;4.498;2022-10-17T05:11:30;53.05;46.82;62.08;;
72415;Laerm;60995;52.154;4.498;2022-10-17T05:13:57;53.43;47.94;60.01;;
72415;Laerm;60995;52.154;4.498;2022-10-17T05:16:13;52.86;47.94;59.21;;
72415;Laerm;60995;52.154;4.498;2022-10-17T05:18:29;53.49;48.50;67.02;;
72415;Laerm;60995;52.154;4.498;2022-10-17T05:20:45;53.25;48.68;59.68;;
72415;Laerm;60995;52.154;4.498;2022-10-17T05:23:01;53.10;48.85;57.61;;
72415;Laerm;60995;52.154;4.498;2022-10-17T05:25:18;55.27;48.49;64.47;;
72415;Laerm;60995;52.154;4.498;2022-10-17T05:27:34;54.01;48.82;60.94;;
72415;Laerm;60995;52.154;4.498;2022-10-17T05:29:50;54.15;49.43;62.28;;
72415;Laerm;60995;52.154;4.498;2022-10-17T05:32:06;54.56;48.62;61.67;;
72415;Laerm;60995;52.154;4.498;2022-10-17T05:34:22;54.01;48.58;63.88;;
72415;Laerm;60995;52.154;4.498;2022-10-17T05:36:39;54.63;48.40;62.78;;
72415;Laerm;60995;52.154;4.498;2022-10-17T05:38:55;53.71;47.96;67.06;;
72415;Laerm;60995;52.154;4.498;2022-10-17T05:41:11;52.47;46.61;58.35;;
72415;Laerm;60995;52.154;4.498;2022-10-17T05:43:28;52.73;47.69;59.26;;
72415;Laerm;60995;52.154;4.498;2022-10-17T05:45:44;52.51;46.28;67.14;;
72415;Laerm;60995;52.154;4.498;2022-10-17T05:48:00;53.70;46.68;64.93;;
72415;Laerm;60995;52.154;4.498;2022-10-17T05:50:16;54.01;48.22;61.88;;
72415;Laerm;60995;52.154;4.498;2022-10-17T05:52:35;53.64;48.18;60.17;;
72415;Laerm;60995;52.154;4.498;2022-10-17T05:54:52;52.72;47.55;58.62;;
72415;Laerm;60995;52.154;4.498;2022-10-17T05:57:07;52.28;48.16;63.59;;
72415;Laerm;60995;52.154;4.498;2022-10-17T05:59:25;52.44;47.96;66.91;;
72415;Laerm;60995;52.154;4.498;2022-10-17T06:01:41;54.24;47.10;65.92;;
72415;Laerm;60995;52.154;4.498;2022-10-17T06:03:57;51.39;46.69;59.41;;
72415;Laerm;60995;52.154;4.498;2022-10-17T06:06:13;51.95;47.07;58.85;;
72415;Laerm;60995;52.154;4.498;2022-10-17T06:08:30;51.58;47.22;70.11;;
72415;Laerm;60995;52.154;4.498;2022-10-17T06:10:47;51.96;47.17;62.58;;
72415;Laerm;60995;52.154;4.498;2022-10-17T06:13:03;53.35;46.70;64.40;;
72415;Laerm;60995;52.154;4.498;2022-10-17T06:15:19;52.28;46.60;58.84;;
72415;Laerm;60995;52.154;4.498;2022-10-17T06:17:36;52.02;45.93;66.77;;
72415;Laerm;60995;52.154;4.498;2022-10-17T06:19:52;51.51;46.59;58.24;;
72415;Laerm;60995;52.154;4.498;2022-10-17T06:22:08;52.02;47.02;58.10;;
72415;Laerm;60995;52.154;4.498;2022-10-17T06:24:24;52.39;46.68;63.30;;
72415;Laerm;60995;52.154;4.498;2022-10-17T06:26:41;53.18;46.45;69.66;;
72415;Laerm;60995;52.154;4.498;2022-10-17T06:28:57;51.62;46.73;58.94;;
72415;Laerm;60995;52.154;4.498;2022-10-17T06:31:15;53.32;47.35;71.35;;
72415;Laerm;60995;52.154;4.498;2022-10-17T06:33:31;52.26;46.53;60.57;;
72415;Laerm;60995;52.154;4.498;2022-10-17T06:35:52;52.07;47.16;60.43;;
72415;Laerm;60995;52.154;4.498;2022-10-17T06:38:08;53.68;48.98;60.12;;
72415;Laerm;60995;52.154;4.498;2022-10-17T06:40:24;54.08;48.81;71.85;;
72415;Laerm;60995;52.154;4.498;2022-10-17T06:42:40;53.10;47.99;63.85;;
72415;Laerm;60995;52.154;4.498;2022-10-17T06:44:57;53.19;47.83;65.09;;
72415;Laerm;60995;52.154;4.498;2022-10-17T06:47:13;53.55;48.47;60.22;;
72415;Laerm;60995;52.154;4.498;2022-10-17T06:49:29;52.87;47.89;58.67;;
72415;Laerm;60995;52.154;4.498;2022-10-17T06:51:45;52.61;47.89;57.69;;
72415;Laerm;60995;52.154;4.498;2022-10-17T06:54:01;52.79;47.46;60.93;;
72415;Laerm;60995;52.154;4.498;2022-10-17T06:56:17;54.46;49.00;73.83;;
72415;Laerm;60995;52.154;4.498;2022-10-17T06:58:36;53.57;48.84;65.04;;
72415;Laerm;60995;52.154;4.498;2022-10-17T07:00:58;54.30;49.12;68.02;;
72415;Laerm;60995;52.154;4.498;2022-10-17T07:03:14;53.28;48.83;62.21;;
72415;Laerm;60995;52.154;4.498;2022-10-17T07:05:30;52.90;48.07;64.34;;
72415;Laerm;60995;52.154;4.498;2022-10-17T07:07:46;52.36;46.65;61.74;;
72415;Laerm;60995;52.154;4.498;2022-10-17T07:10:02;51.61;46.24;59.41;;
72415;Laerm;60995;52.154;4.498;2022-10-17T07:12:23;52.13;46.83;58.52;;
72415;Laerm;60995;52.154;4.498;2022-10-17T07:14:39;52.44;46.81;58.58;;
72415;Laerm;60995;52.154;4.498;2022-10-17T07:16:55;51.48;46.25;67.12;;
72415;Laerm;60995;52.154;4.498;2022-10-17T07:19:11;52.25;46.76;63.86;;
72415;Laerm;60995;52.154;4.498;2022-10-17T07:21:27;52.93;47.70;61.87;;
72415;Laerm;60995;52.154;4.498;2022-10-17T07:23:43;52.68;46.60;64.77;;
72415;Laerm;60995;52.154;4.498;2022-10-17T07:26:01;52.41;47.40;56.82;;
72415;Laerm;60995;52.154;4.498;2022-10-17T07:28:18;52.46;46.44;59.11;;
72415;Laerm;60995;52.154;4.498;2022-10-17T07:30:34;53.25;47.68;62.81;;
72415;Laerm;60995;52.154;4.498;2022-10-17T07:32:53;53.29;47.61;64.92;;
72415;Laerm;60995;52.154;4.498;2022-10-17T07:35:10;53.12;47.62;61.75;;
72415;Laerm;60995;52.154;4.498;2022-10-17T07:37:28;52.68;46.14;59.08;;
72415;Laerm;60995;52.154;4.498;2022-10-17T07:39:44;53.77;47.75;62.63;;
72415;Laerm;60995;52.154;4.498;2022-10-17T07:42:00;53.13;46.92;59.15;;
72415;Laerm;60995;52.154;4.498;2022-10-17T07:44:16;53.54;48.54;67.37;;
72415;Laerm;60995;52.154;4.498;2022-10-17T07:46:32;53.46;48.43;65.43;;
72415;Laerm;60995;52.154;4.498;2022-10-17T07:48:48;53.57;49.41;71.40;;
72415;Laerm;60995;52.154;4.498;2022-10-17T07:51:06;53.98;49.56;72.32;;
72415;Laerm;60995;52.154;4.498;2022-10-17T07:53:22;53.52;48.43;68.08;;
72415;Laerm;60995;52.154;4.498;2022-10-17T07:55:39;56.10;50.46;71.57;;
72415;Laerm;60995;52.154;4.498;2022-10-17T07:57:56;56.55;51.69;72.02;;
72415;Laerm;60995;52.154;4.498;2022-10-17T08:00:13;56.89;52.65;68.30;;
72415;Laerm;60995;52.154;4.498;2022-10-17T08:02:29;57.54;52.94;72.73;;
72415;Laerm;60995;52.154;4.498;2022-10-17T08:04:45;55.90;50.65;66.25;;
72415;Laerm;60995;52.154;4.498;2022-10-17T08:07:01;55.34;50.81;71.95;;
72415;Laerm;60995;52.154;4.498;2022-10-17T08:09:17;55.98;51.22;67.99;;
72415;Laerm;60995;52.154;4.498;2022-10-17T08:11:33;55.55;50.72;70.20;;
72415;Laerm;60995;52.154;4.498;2022-10-17T08:13:51;55.50;51.09;71.89;;
72415;Laerm;60995;52.154;4.498;2022-10-17T08:16:10;58.36;52.58;74.11;;
72415;Laerm;60995;52.154;4.498;2022-10-17T08:18:27;57.57;53.37;69.97;;
72415;Laerm;60995;52.154;4.498;2022-10-17T08:20:43;57.27;52.50;73.23;;
72415;Laerm;60995;52.154;4.498;2022-10-17T08:22:59;57.27;52.46;66.27;;
72415;Laerm;60995;52.154;4.498;2022-10-17T08:25:17;57.79;53.11;72.53;;
72415;Laerm;60995;52.154;4.498;2022-10-17T08:27:33;57.86;52.76;72.50;;
72415;Laerm;60995;52.154;4.498;2022-10-17T08:29:50;58.62;53.68;77.55;;
72415;Laerm;60995;52.154;4.498;2022-10-17T08:32:08;58.11;53.30;72.33;;
72415;Laerm;60995;52.154;4.498;2022-10-17T08:34:24;57.91;52.37;73.64;;
72415;Laerm;60995;52.154;4.498;2022-10-17T08:36:41;56.12;51.15;69.63;;
72415;Laerm;60995;52.154;4.498;2022-10-17T08:38:57;55.47;48.33;76.20;;
72415;Laerm;60995;52.154;4.498;2022-10-17T08:41:14;53.43;46.58;74.32;;
72415;Laerm;60995;52.154;4.498;2022-10-17T08:43:48;53.89;48.11;74.23;;
72415;Laerm;60995;52.154;4.498;2022-10-17T08:46:08;53.33;48.77;64.22;;
72415;Laerm;60995;52.154;4.498;2022-10-17T08:48:26;53.53;48.62;73.36;;
72415;Laerm;60995;52.154;4.498;2022-10-17T08:51:04;54.07;48.81;69.11;;
72415;Laerm;60995;52.154;4.498;2022-10-17T08:53:30;53.00;47.21;73.40;;
72415;Laerm;60995;52.154;4.498;2022-10-17T08:55:49;52.52;47.28;64.04;;
72415;Laerm;60995;52.154;4.498;2022-10-17T08:58:20;52.04;45.75;72.14;;
72415;Laerm;60995;52.154;4.498;2022-10-17T09:00:37;51.32;45.74;62.96;;
72415;Laerm;60995;52.154;4.498;2022-10-17T09:10:50;52.52;47.72;64.85;;
72415;Laerm;60995;52.154;4.498;2022-10-17T09:13:35;52.53;47.18;71.55;;
72415;Laerm;60995;52.154;4.498;2022-10-17T09:18:35;53.38;47.49;64.40;;
72415;Laerm;60995;52.154;4.498;2022-10-17T09:20:54;52.55;46.56;69.02;;
72415;Laerm;60995;52.154;4.498;2022-10-17T09:23:23;52.21;46.78;63.23;;
72415;Laerm;60995;52.154;4.498;2022-10-17T09:25:46;52.30;45.37;69.63;;
72415;Laerm;60995;52.154;4.498;2022-10-17T09:33:20;51.76;45.30;66.92;;
72415;Laerm;60995;52.154;4.498;2022-10-17T09:35:40;53.09;45.12;61.61;;
72415;Laerm;60995;52.154;4.498;2022-10-17T09:37:57;51.73;45.51;63.66;;
72415;Laerm;60995;52.154;4.498;2022-10-17T09:40:33;50.99;44.27;70.39;;
72415;Laerm;60995;52.154;4.498;2022-10-17T09:42:50;51.98;44.54;70.69;;
72415;Laerm;60995;52.154;4.498;2022-10-17T09:45:19;51.39;44.25;65.05;;
72415;Laerm;60995;52.154;4.498;2022-10-17T09:47:47;49.79;43.39;59.82;;
72415;Laerm;60995;52.154;4.498;2022-10-17T09:50:15;50.67;44.78;59.55;;
72415;Laerm;60995;52.154;4.498;2022-10-17T09:52:43;51.11;44.66;64.40;;
72415;Laerm;60995;52.154;4.498;2022-10-17T09:55:19;53.55;46.70;65.15;;
72415;Laerm;60995;52.154;4.498;2022-10-17T09:57:59;51.71;43.16;71.87;;
72415;Laerm;60995;52.154;4.498;2022-10-17T10:00:25;52.72;44.14;67.58;;
72415;Laerm;60995;52.154;4.498;2022-10-17T10:02:42;51.19;44.87;72.27;;
72415;Laerm;60995;52.154;4.498;2022-10-17T10:05:04;51.07;44.67;66.25;;
72415;Laerm;60995;52.154;4.498;2022-10-17T10:07:21;51.17;44.40;62.38;;
72415;Laerm;60995;52.154;4.498;2022-10-17T10:09:37;50.14;42.79;61.71;;
72415;Laerm;60995;52.154;4.498;2022-10-17T10:11:55;51.94;45.50;73.94;;
72415;Laerm;60995;52.154;4.498;2022-10-17T10:16:41;51.43;42.86;71.54;;
72415;Laerm;60995;52.154;4.498;2022-10-17T10:18:58;50.19;43.66;66.14;;
72415;Laerm;60995;52.154;4.498;2022-10-17T10:21:16;50.04;42.96;66.49;;
72415;Laerm;60995;52.154;4.498;2022-10-17T10:23:35;50.19;44.19;65.58;;
72415;Laerm;60995;52.154;4.498;2022-10-17T10:25:55;51.59;45.80;62.95;;
72415;Laerm;60995;52.154;4.498;2022-10-17T10:28:14;49.74;43.82;64.85;;
72415;Laerm;60995;52.154;4.498;2022-10-17T10:30:32;50.01;44.53;69.67;;
72415;Laerm;60995;52.154;4.498;2022-10-17T10:32:48;49.91;44.95;65.12;;
72415;Laerm;60995;52.154;4.498;2022-10-17T10:35:18;51.18;45.96;64.08;;
72415;Laerm;60995;52.154;4.498;2022-10-17T10:37:41;52.06;44.56;62.45;;
72415;Laerm;60995;52.154;4.498;2022-10-17T10:40:00;51.35;44.04;64.20;;
72415;Laerm;60995;52.154;4.498;2022-10-17T10:42:24;51.05;44.74;68.65;;
72415;Laerm;60995;52.154;4.498;2022-10-17T10:44:41;51.64;45.91;65.84;;
72415;Laerm;60995;52.154;4.498;2022-10-17T10:47:30;51.38;44.95;68.71;;
72415;Laerm;60995;52.154;4.498;2022-10-17T10:49:50;50.53;44.60;67.41;;
72415;Laerm;60995;52.154;4.498;2022-10-17T10:52:14;51.13;45.49;73.84;;
72415;Laerm;60995;52.154;4.498;2022-10-17T10:54:38;51.32;43.84;64.96;;
72415;Laerm;60995;52.154;4.498;2022-10-17T10:57:01;54.67;46.47;71.65;;
72415;Laerm;60995;52.154;4.498;2022-10-17T10:59:34;51.99;46.08;66.02;;
72415;Laerm;60995;52.154;4.498;2022-10-17T11:04:42;51.25;45.39;63.88;;
72415;Laerm;60995;52.154;4.498;2022-10-17T11:07:17;50.78;45.40;56.85;;
72415;Laerm;60995;52.154;4.498;2022-10-17T11:12:36;52.94;48.16;66.61;;
72415;Laerm;60995;52.154;4.498;2022-10-17T11:14:59;53.15;47.34;65.69;;
72415;Laerm;60995;52.154;4.498;2022-10-17T11:17:27;57.79;46.94;81.05;;
72415;Laerm;60995;52.154;4.498;2022-10-17T11:19:58;55.13;48.06;79.46;;
72415;Laerm;60995;52.154;4.498;2022-10-17T11:22:30;54.20;47.38;70.23;;
72415;Laerm;60995;52.154;4.498;2022-10-17T11:27:37;53.80;46.82;67.68;;
72415;Laerm;60995;52.154;4.498;2022-10-17T11:29:54;61.74;47.64;78.96;;
72415;Laerm;60995;52.154;4.498;2022-10-17T11:32:19;53.44;47.27;61.70;;
72415;Laerm;60995;52.154;4.498;2022-10-17T11:34:46;51.34;45.75;57.16;;
72415;Laerm;60995;52.154;4.498;2022-10-17T11:37:14;51.80;45.84;67.27;;
72415;Laerm;60995;52.154;4.498;2022-10-17T11:42:14;51.94;46.71;58.33;;
72415;Laerm;60995;52.154;4.498;2022-10-17T11:44:38;51.07;45.06;57.24;;
72415;Laerm;60995;52.154;4.498;2022-10-17T11:47:01;52.29;46.07;61.82;;
72415;Laerm;60995;52.154;4.498;2022-10-17T11:49:39;51.22;45.26;59.62;;
72415;Laerm;60995;52.154;4.498;2022-10-17T11:54:26;51.13;45.69;57.81;;
72415;Laerm;60995;52.154;4.498;2022-10-17T12:07:47;50.85;44.50;62.17;;
72415;Laerm;60995;52.154;4.498;2022-10-17T12:12:37;51.21;45.10;67.57;;
72415;Laerm;60995;52.154;4.498;2022-10-17T12:17:37;55.82;44.34;81.76;;
72415;Laerm;60995;52.154;4.498;2022-10-17T12:25:29;53.65;45.43;79.85;;
72415;Laerm;60995;52.154;4.498;2022-10-17T12:27:48;51.00;43.68;57.41;;
72415;Laerm;60995;52.154;4.498;2022-10-17T12:30:13;51.01;44.26;59.91;;
72415;Laerm;60995;52.154;4.498;2022-10-17T12:32:30;51.00;44.16;61.82;;
72415;Laerm;60995;52.154;4.498;2022-10-17T12:34:51;50.65;44.80;60.27;;
72415;Laerm;60995;52.154;4.498;2022-10-17T12:37:10;61.52;44.11;82.18;;
72415;Laerm;60995;52.154;4.498;2022-10-17T12:43:59;54.35;45.80;66.91;;
72415;Laerm;60995;52.154;4.498;2022-10-17T12:52:05;51.29;45.35;66.98;;
72415;Laerm;60995;52.154;4.498;2022-10-17T12:54:30;53.25;44.63;71.73;;
72415;Laerm;60995;52.154;4.498;2022-10-17T12:56:52;52.85;45.70;73.10;;
72415;Laerm;60995;52.154;4.498;2022-10-17T12:59:19;50.72;44.58;58.76;;
72415;Laerm;60995;52.154;4.498;2022-10-17T13:01:37;50.22;43.33;60.38;;
72415;Laerm;60995;52.154;4.498;2022-10-17T13:03:55;50.95;45.84;67.32;;
72415;Laerm;60995;52.154;4.498;2022-10-17T13:06:19;49.88;44.17;56.03;;
72415;Laerm;60995;52.154;4.498;2022-10-17T13:08:39;51.37;44.51;66.81;;
72415;Laerm;60995;52.154;4.498;2022-10-17T13:10:59;50.52;44.68;57.68;;
72415;Laerm;60995;52.154;4.498;2022-10-17T13:13:20;56.46;44.85;69.00;;
72415;Laerm;60995;52.154;4.498;2022-10-17T13:15:37;50.39;44.33;57.28;;
72415;Laerm;60995;52.154;4.498;2022-10-17T13:17:58;50.86;45.13;59.30;;
72415;Laerm;60995;52.154;4.498;2022-10-17T13:20:20;51.16;44.89;59.38;;
72415;Laerm;60995;52.154;4.498;2022-10-17T13:22:43;51.93;44.65;63.54;;
72415;Laerm;60995;52.154;4.498;2022-10-17T13:25:29;50.76;44.14;59.24;;
72415;Laerm;60995;52.154;4.498;2022-10-17T13:27:46;49.94;43.72;61.97;;
72415;Laerm;60995;52.154;4.498;2022-10-17T13:30:27;49.70;44.68;55.65;;
72415;Laerm;60995;52.154;4.498;2022-10-17T13:32:44;49.96;44.11;57.58;;
72415;Laerm;60995;52.154;4.498;2022-10-17T13:35:13;49.54;44.26;56.76;;
72415;Laerm;60995;52.154;4.498;2022-10-17T13:37:33;54.32;44.03;73.10;;
72415;Laerm;60995;52.154;4.498;2022-10-17T13:39:49;54.14;45.75;69.87;;
72415;Laerm;60995;52.154;4.498;2022-10-17T13:42:26;50.64;43.76;59.68;;
72415;Laerm;60995;52.154;4.498;2022-10-17T13:44:43;53.37;44.65;64.74;;
72415;Laerm;60995;52.154;4.498;2022-10-17T13:46:59;51.24;45.31;57.40;;
72415;Laerm;60995;52.154;4.498;2022-10-17T13:51:45;51.13;44.78;56.14;;
72415;Laerm;60995;52.154;4.498;2022-10-17T13:54:38;51.64;44.92;57.90;;
72415;Laerm;60995;52.154;4.498;2022-10-17T13:56:56;50.74;43.93;58.97;;
72415;Laerm;60995;52.154;4.498;2022-10-17T13:59:39;51.13;43.78;59.98;;
72415;Laerm;60995;52.154;4.498;2022-10-17T14:01:56;51.93;46.48;64.64;;
72415;Laerm;60995;52.154;4.498;2022-10-17T14:04:12;50.60;43.97;62.22;;
72415;Laerm;60995;52.154;4.498;2022-10-17T14:06:29;50.77;43.51;58.42;;
72415;Laerm;60995;52.154;4.498;2022-10-17T14:08:53;48.18;43.21;57.42;;
72415;Laerm;60995;52.154;4.498;2022-10-17T14:11:37;50.12;42.09;60.63;;
72415;Laerm;60995;52.154;4.498;2022-10-17T14:13:55;51.56;43.04;78.35;;
72415;Laerm;60995;52.154;4.498;2022-10-17T14:16:12;49.91;42.61;67.27;;
72415;Laerm;60995;52.154;4.498;2022-10-17T14:18:31;49.47;42.62;56.65;;
72415;Laerm;60995;52.154;4.498;2022-10-17T14:20:49;50.01;43.61;56.75;;
72415;Laerm;60995;52.154;4.498;2022-10-17T14:23:27;50.41;44.40;57.02;;
72415;Laerm;60995;52.154;4.498;2022-10-17T14:25:43;50.81;43.34;59.16;;
72415;Laerm;60995;52.154;4.498;2022-10-17T14:32:41;49.72;43.92;56.85;;
72415;Laerm;60995;52.154;4.498;2022-10-17T14:35:00;50.78;42.76;67.87;;
72415;Laerm;60995;52.154;4.498;2022-10-17T14:37:29;49.00;42.75;70.48;;
72415;Laerm;60995;52.154;4.498;2022-10-17T14:39:50;49.36;42.64;57.95;;
72415;Laerm;60995;52.154;4.498;2022-10-17T14:42:16;50.77;43.81;70.89;;
72415;Laerm;60995;52.154;4.498;2022-10-17T14:44:34;49.53;41.69;60.54;;
72415;Laerm;60995;52.154;4.498;2022-10-17T14:46:53;50.38;43.24;63.89;;